createdAt,value
2019-03-24T00:01:41.376Z,27.00
2019-03-24T00:04:34.612Z,27.00
2019-03-24T00:07:31.179Z,26.90
2019-03-24T00:10:26.931Z,26.90
2019-03-24T00:13:24.939Z,26.80
2019-03-24T00:16:20.989Z,26.80
2019-03-24T00:19:17.491Z,26.80
2019-03-24T00:22:13.647Z,26.80
2019-03-24T00:25:10.997Z,26.80
2019-03-24T00:28:06.938Z,26.70
2019-03-24T00:31:03.701Z,26.70
2019-03-24T00:34:00.199Z,26.70
2019-03-24T00:36:56.362Z,26.60
2019-03-24T00:39:52.366Z,26.60
2019-03-24T00:42:48.560Z,26.60
2019-03-24T00:45:45.721Z,26.60
2019-03-24T00:48:42.235Z,26.60
2019-03-24T00:51:40.272Z,26.50
2019-03-24T00:54:36.975Z,26.50
2019-03-24T00:57:34.012Z,26.50
2019-03-24T01:00:46.547Z,26.50
2019-03-24T01:03:42.849Z,26.50
2019-03-24T01:06:39.335Z,26.50
2019-03-24T01:09:35.744Z,26.50
2019-03-24T01:12:31.807Z,26.50
2019-03-24T01:15:28.637Z,26.50
2019-03-24T01:18:25.272Z,26.50
2019-03-24T01:21:21.260Z,26.50
2019-03-24T01:24:17.758Z,26.50
2019-03-24T01:27:13.735Z,26.50
2019-03-24T01:30:10.316Z,26.50
2019-03-24T01:33:06.736Z,26.50
2019-03-24T01:36:03.442Z,26.50
2019-03-24T01:39:00.598Z,26.50
2019-03-24T01:41:57.799Z,26.50
2019-03-24T01:44:54.463Z,26.50
2019-03-24T01:47:50.920Z,26.50
2019-03-24T01:50:47.727Z,26.50
2019-03-24T01:53:45.968Z,26.50
2019-03-24T01:56:42.322Z,26.50
2019-03-24T01:59:39.590Z,26.60
2019-03-24T02:02:36.457Z,26.60
2019-03-24T02:05:32.955Z,26.60
2019-03-24T02:08:29.970Z,26.60
2019-03-24T02:11:26.109Z,26.60
2019-03-24T02:14:22.353Z,26.70
2019-03-24T02:17:18.416Z,26.70
2019-03-24T02:20:14.861Z,26.70
2019-03-24T02:23:11.434Z,26.80
2019-03-24T02:26:08.357Z,26.80
2019-03-24T02:29:05.082Z,26.80
2019-03-24T02:32:01.481Z,26.90
2019-03-24T02:34:57.953Z,26.90
2019-03-24T02:37:54.164Z,26.90
2019-03-24T02:40:50.437Z,27.00
2019-03-24T02:43:46.932Z,27.00
2019-03-24T02:46:45.039Z,27.10
2019-03-24T02:49:43.892Z,27.10
2019-03-24T02:52:40.449Z,27.20
2019-03-24T02:55:39.441Z,27.20
2019-03-24T02:58:36.243Z,27.30
2019-03-24T03:01:32.714Z,27.30
2019-03-24T03:04:28.874Z,27.30
2019-03-24T03:07:28.242Z,27.40
2019-03-24T03:10:24.938Z,27.40
2019-03-24T03:13:20.863Z,27.40
2019-03-24T03:16:17.255Z,27.50
2019-03-24T03:19:13.320Z,27.60
2019-03-24T03:22:09.722Z,27.60
2019-03-24T03:25:06.123Z,27.60
2019-03-24T03:28:02.557Z,27.70
2019-03-24T03:30:58.782Z,27.70
2019-03-24T03:33:55.049Z,27.80
2019-03-24T03:36:52.106Z,27.80
2019-03-24T03:39:49.384Z,27.90
2019-03-24T03:42:47.339Z,27.90
2019-03-24T03:45:44.816Z,28.00
2019-03-24T03:48:41.411Z,28.00
2019-03-24T03:51:40.677Z,28.10
2019-03-24T03:54:36.993Z,28.10
2019-03-24T03:57:35.292Z,28.20
2019-03-24T04:00:50.230Z,28.20
2019-03-24T04:03:46.162Z,28.30
2019-03-24T04:06:42.759Z,28.40
2019-03-24T04:09:39.209Z,28.40
2019-03-24T04:12:35.551Z,28.50
2019-03-24T04:15:31.396Z,28.60
2019-03-24T04:18:28.022Z,28.60
2019-03-24T04:21:24.411Z,28.70
2019-03-24T04:24:21.244Z,28.70
2019-03-24T04:27:17.795Z,28.80
2019-03-24T04:30:14.309Z,28.90
2019-03-24T04:33:11.452Z,28.90
2019-03-24T04:36:07.767Z,29.00
2019-03-24T04:39:04.278Z,29.10
2019-03-24T04:42:02.634Z,29.10
2019-03-24T04:44:56.710Z,29.20
2019-03-24T04:47:54.202Z,29.20
2019-03-24T04:50:51.043Z,29.30
2019-03-24T04:53:47.758Z,29.40
2019-03-24T04:56:44.142Z,29.40
2019-03-24T04:59:41.041Z,29.50
2019-03-24T05:02:37.939Z,29.60
2019-03-24T05:05:34.505Z,29.60
2019-03-24T05:08:31.860Z,29.60
2019-03-24T05:11:28.269Z,29.70
2019-03-24T05:14:24.503Z,29.80
2019-03-24T05:17:27.050Z,29.80
2019-03-24T05:20:17.750Z,29.90
2019-03-24T05:23:15.305Z,29.90
2019-03-24T05:26:12.361Z,30.00
2019-03-24T05:29:09.123Z,30.00
2019-03-24T05:32:05.930Z,30.10
2019-03-24T05:35:03.196Z,30.10
2019-03-24T05:37:59.911Z,30.20
2019-03-24T05:40:59.691Z,30.20
2019-03-24T05:43:57.757Z,30.30
2019-03-24T05:46:54.551Z,30.30
2019-03-24T05:49:50.557Z,30.40
2019-03-24T05:52:47.455Z,30.40
2019-03-24T05:55:44.625Z,30.50
2019-03-24T05:58:41.556Z,30.50
2019-03-24T06:01:37.697Z,30.60
2019-03-24T06:04:33.850Z,30.60
2019-03-24T06:07:29.957Z,30.70
2019-03-24T06:10:26.090Z,30.70
2019-03-24T06:13:22.041Z,30.80
2019-03-24T06:16:17.984Z,30.80
2019-03-24T06:19:14.406Z,30.90
2019-03-24T06:22:10.720Z,30.90
2019-03-24T06:25:07.280Z,31.00
2019-03-24T06:28:03.451Z,31.00
2019-03-24T06:31:01.732Z,31.10
2019-03-24T06:33:56.562Z,31.10
2019-03-24T06:36:52.745Z,31.20
2019-03-24T06:39:48.918Z,31.20
2019-03-24T06:42:45.713Z,31.40
2019-03-24T06:45:42.686Z,31.50
2019-03-24T06:48:39.343Z,31.60
2019-03-24T06:51:35.795Z,31.70
2019-03-24T06:54:32.416Z,31.90
2019-03-24T06:57:29.388Z,31.90
2019-03-24T07:00:25.395Z,31.90
2019-03-24T07:03:21.446Z,32.00
2019-03-24T07:06:17.703Z,32.00
2019-03-24T07:09:13.770Z,32.20
2019-03-24T07:12:11.712Z,32.20
2019-03-24T07:15:08.803Z,32.40
2019-03-24T07:18:08.666Z,32.50
2019-03-24T07:21:04.161Z,32.70
2019-03-24T07:24:00.620Z,33.00
2019-03-24T07:26:56.599Z,33.20
2019-03-24T07:29:53.252Z,33.40
2019-03-24T07:32:48.996Z,33.50
2019-03-24T07:35:45.394Z,33.60
2019-03-24T07:38:42.618Z,33.70
2019-03-24T07:41:39.272Z,33.80
2019-03-24T07:44:36.056Z,33.80
2019-03-24T07:47:32.079Z,33.80
2019-03-24T07:50:28.421Z,33.80
2019-03-24T07:53:24.471Z,33.80
2019-03-24T07:56:20.791Z,33.80
2019-03-24T07:59:16.658Z,33.80
2019-03-24T08:02:12.712Z,33.70
2019-03-24T08:05:08.810Z,33.70
2019-03-24T08:08:04.654Z,33.70
2019-03-24T08:11:00.494Z,33.70
2019-03-24T08:13:56.631Z,33.70
2019-03-24T08:16:53.064Z,33.60
2019-03-24T08:19:49.192Z,33.60
2019-03-24T08:22:45.530Z,33.60
2019-03-24T08:25:41.402Z,33.60
2019-03-24T08:28:37.913Z,33.70
2019-03-24T08:31:34.330Z,33.80
2019-03-24T08:34:31.005Z,34.00
2019-03-24T08:37:28.437Z,34.10
2019-03-24T08:40:24.413Z,34.30
2019-03-24T08:43:21.956Z,34.50
2019-03-24T08:46:18.328Z,34.70
2019-03-24T08:49:14.919Z,34.90
2019-03-24T08:52:12.791Z,35.20
2019-03-24T08:55:08.324Z,35.50
2019-03-24T08:58:04.423Z,35.80
2019-03-24T09:01:01.247Z,36.10
2019-03-24T09:03:58.042Z,36.50
2019-03-24T09:06:54.177Z,36.90
2019-03-24T09:09:50.605Z,37.30
2019-03-24T09:12:47.197Z,37.60
2019-03-24T09:15:43.284Z,37.80
2019-03-24T09:18:51.686Z,37.90
2019-03-24T09:21:39.774Z,37.90
2019-03-24T09:24:38.514Z,37.90
2019-03-24T09:27:34.395Z,37.80
2019-03-24T09:30:41.832Z,37.60
2019-03-24T09:33:38.836Z,37.40
2019-03-24T09:36:35.252Z,37.30
2019-03-24T09:39:31.489Z,37.20
2019-03-24T09:42:28.380Z,37.10
2019-03-24T09:45:25.709Z,37.10
2019-03-24T09:48:21.832Z,37.10
2019-03-24T09:51:18.152Z,37.30
2019-03-24T09:54:14.738Z,37.40
2019-03-24T09:57:11.851Z,37.50
2019-03-24T10:00:08.815Z,37.60
2019-03-24T10:03:05.813Z,37.80
2019-03-24T10:06:02.658Z,38.10
2019-03-24T10:08:58.951Z,38.50
2019-03-24T10:11:55.455Z,38.80
2019-03-24T10:14:53.562Z,39.10
2019-03-24T10:17:49.595Z,39.30
2019-03-24T10:20:47.426Z,39.40
2019-03-24T10:23:43.827Z,39.50
2019-03-24T10:26:39.660Z,39.60
2019-03-24T10:29:36.346Z,39.70
2019-03-24T10:32:32.426Z,39.60
2019-03-24T10:35:29.229Z,39.60
2019-03-24T10:38:26.261Z,39.60
2019-03-24T10:41:22.792Z,39.60
2019-03-24T10:44:19.804Z,39.60
2019-03-24T10:47:17.198Z,39.60
2019-03-24T10:50:14.515Z,39.60
2019-03-24T10:53:11.624Z,39.50
2019-03-24T10:56:07.675Z,39.30
2019-03-24T10:59:04.059Z,39.20
2019-03-24T11:02:01.359Z,39.10
2019-03-24T11:04:58.948Z,39.00
2019-03-24T11:07:55.220Z,38.90
2019-03-24T11:10:51.678Z,38.90
2019-03-24T11:13:48.494Z,38.90
2019-03-24T11:16:45.375Z,38.90
2019-03-24T11:19:42.220Z,38.80
2019-03-24T11:22:38.862Z,38.70
2019-03-24T11:25:36.184Z,38.60
2019-03-24T11:28:32.447Z,38.40
2019-03-24T11:31:29.387Z,38.30
2019-03-24T11:34:26.312Z,38.20
2019-03-24T11:37:23.950Z,38.00
2019-03-24T11:40:21.200Z,37.90
2019-03-24T11:43:17.582Z,37.80
2019-03-24T11:46:13.875Z,37.80
2019-03-24T11:49:19.668Z,37.70
2019-03-24T11:52:15.979Z,37.70
2019-03-24T11:55:13.018Z,37.50
2019-03-24T11:58:09.836Z,37.40
2019-03-24T12:01:06.505Z,37.30
2019-03-24T12:04:03.295Z,37.20
2019-03-24T12:07:00.034Z,37.10
2019-03-24T12:09:56.816Z,37.00
2019-03-24T12:12:53.463Z,36.80
2019-03-24T12:15:50.681Z,36.70
2019-03-24T12:18:46.883Z,36.60
2019-03-24T12:21:42.741Z,36.40
2019-03-24T12:24:39.895Z,36.30
2019-03-24T12:27:37.867Z,36.10
2019-03-24T12:30:34.087Z,35.90
2019-03-24T12:33:30.908Z,35.80
2019-03-24T12:36:27.830Z,35.60
2019-03-24T12:39:24.198Z,35.50
2019-03-24T12:42:20.989Z,35.30
2019-03-24T12:45:18.558Z,35.20
2019-03-24T12:48:14.716Z,35.00
2019-03-24T12:51:10.996Z,34.90
2019-03-24T12:54:07.859Z,34.70
2019-03-24T12:57:04.661Z,34.60
2019-03-24T13:00:01.632Z,34.50
2019-03-24T13:02:59.639Z,34.30
2019-03-24T13:05:56.048Z,34.20
2019-03-24T13:08:52.905Z,34.10
2019-03-24T13:11:50.533Z,34.00
2019-03-24T13:14:49.455Z,33.90
2019-03-24T13:17:45.427Z,33.70
2019-03-24T13:20:42.250Z,33.70
2019-03-24T13:23:39.678Z,33.60
2019-03-24T13:26:36.521Z,33.50
2019-03-24T13:29:33.466Z,33.40
2019-03-24T13:32:30.442Z,33.40
2019-03-24T13:35:27.318Z,33.30
2019-03-24T13:38:27.610Z,33.20
2019-03-24T13:41:24.115Z,33.10
2019-03-24T13:44:20.592Z,33.00
2019-03-24T13:47:17.260Z,33.00
2019-03-24T13:50:14.165Z,32.90
2019-03-24T13:53:11.290Z,32.90
2019-03-24T13:56:07.526Z,32.80
2019-03-24T13:59:04.102Z,32.80
2019-03-24T14:02:00.339Z,32.70
2019-03-24T14:04:58.075Z,32.70
2019-03-24T14:07:56.108Z,32.60
2019-03-24T14:10:53.853Z,32.60
2019-03-24T14:13:52.113Z,32.50
2019-03-24T14:16:50.730Z,32.50
2019-03-24T14:19:47.862Z,32.40
2019-03-24T14:22:45.975Z,32.40
2019-03-24T14:25:42.477Z,32.30
2019-03-24T14:28:39.454Z,32.30
2019-03-24T14:31:36.115Z,32.30
2019-03-24T14:34:33.835Z,32.20
2019-03-24T14:37:30.530Z,32.10
2019-03-24T14:40:29.090Z,32.10
2019-03-24T14:43:27.576Z,32.10
2019-03-24T14:46:23.838Z,32.10
2019-03-24T14:49:22.126Z,32.00
2019-03-24T14:52:19.409Z,32.00
2019-03-24T14:55:15.897Z,31.90
2019-03-24T14:58:14.129Z,31.90
2019-03-24T15:01:10.886Z,31.80
2019-03-24T15:04:06.811Z,31.80
2019-03-24T15:07:05.368Z,31.80
2019-03-24T15:10:01.564Z,31.70
2019-03-24T15:13:00.101Z,31.70
2019-03-24T15:15:56.538Z,31.70
2019-03-24T15:18:52.644Z,31.70
2019-03-24T15:21:50.090Z,31.60
2019-03-24T15:24:46.214Z,31.60
2019-03-24T15:27:43.609Z,31.50
2019-03-24T15:30:39.988Z,31.50
2019-03-24T15:33:36.971Z,31.50
2019-03-24T15:36:33.507Z,31.40
2019-03-24T15:39:29.718Z,31.40
2019-03-24T15:42:26.051Z,31.30
2019-03-24T15:45:22.795Z,31.30
2019-03-24T15:48:20.481Z,31.30
2019-03-24T15:51:17.318Z,31.20
2019-03-24T15:54:13.495Z,31.20
2019-03-24T15:57:10.460Z,31.20
2019-03-24T16:00:07.939Z,31.10
2019-03-24T16:03:04.899Z,31.10
2019-03-24T16:06:00.979Z,31.10
2019-03-24T16:08:57.574Z,31.10
2019-03-24T16:11:53.861Z,31.00
2019-03-24T16:14:50.177Z,31.00
2019-03-24T16:17:46.343Z,31.00
2019-03-24T16:20:43.244Z,30.90
2019-03-24T16:23:40.662Z,30.90
2019-03-24T16:26:37.700Z,30.90
2019-03-24T16:29:33.907Z,30.80
2019-03-24T16:32:30.853Z,30.80
2019-03-24T16:35:28.409Z,30.80
2019-03-24T16:38:25.478Z,30.80
2019-03-24T16:41:22.918Z,30.70
2019-03-24T16:44:20.488Z,30.70
2019-03-24T16:47:18.561Z,30.70
2019-03-24T16:50:16.391Z,30.60
2019-03-24T16:53:12.290Z,30.60
2019-03-24T16:56:08.854Z,30.50
2019-03-24T16:59:05.515Z,30.50
2019-03-24T17:02:02.597Z,30.40
2019-03-24T17:04:58.939Z,30.40
2019-03-24T17:07:55.687Z,30.40
2019-03-24T17:10:52.272Z,30.40
2019-03-24T17:13:48.892Z,30.30
2019-03-24T17:16:45.203Z,30.30
2019-03-24T17:19:41.616Z,30.30
2019-03-24T17:22:38.257Z,30.30
2019-03-24T17:25:35.195Z,30.20
2019-03-24T17:28:32.119Z,30.20
2019-03-24T17:31:29.154Z,30.20
2019-03-24T17:34:25.257Z,30.20
2019-03-24T17:37:22.081Z,30.10
2019-03-24T17:40:18.937Z,30.10
2019-03-24T17:43:15.766Z,30.10
2019-03-24T17:46:13.808Z,30.10
2019-03-24T17:49:10.806Z,30.00
2019-03-24T17:52:07.430Z,30.00
2019-03-24T17:55:04.317Z,30.00
2019-03-24T17:58:01.024Z,29.90
2019-03-24T18:00:58.951Z,29.90
2019-03-24T18:03:54.920Z,29.90
2019-03-24T18:06:51.436Z,29.90
2019-03-24T18:09:48.001Z,29.90
2019-03-24T18:12:44.304Z,29.90
2019-03-24T18:15:40.465Z,29.80
2019-03-24T18:18:36.971Z,29.80
2019-03-24T18:21:33.239Z,29.80
2019-03-24T18:24:29.728Z,29.80
2019-03-24T18:27:26.074Z,29.80
2019-03-24T18:30:22.919Z,29.70
2019-03-24T18:33:19.296Z,29.70
2019-03-24T18:36:15.875Z,29.70
2019-03-24T18:39:13.952Z,29.70
2019-03-24T18:42:13.008Z,29.70
2019-03-24T18:45:10.717Z,29.70
2019-03-24T18:48:07.470Z,29.60
2019-03-24T18:51:04.353Z,29.60
2019-03-24T18:54:00.591Z,29.60
2019-03-24T18:56:57.620Z,29.60
2019-03-24T18:59:53.933Z,29.60
2019-03-24T19:02:50.539Z,29.60
2019-03-24T19:05:47.330Z,29.50
2019-03-24T19:08:43.855Z,29.50
2019-03-24T19:11:40.642Z,29.50
2019-03-24T19:14:37.205Z,29.50
2019-03-24T19:17:33.792Z,29.50
2019-03-24T19:20:30.432Z,29.50
2019-03-24T19:23:26.976Z,29.40
2019-03-24T19:26:23.578Z,29.40
2019-03-24T19:29:20.190Z,29.40
2019-03-24T19:32:16.909Z,29.40
2019-03-24T19:35:13.853Z,29.30
2019-03-24T19:38:10.203Z,29.30
2019-03-24T19:41:06.979Z,29.30
2019-03-24T19:44:03.425Z,29.30
2019-03-24T19:46:59.987Z,29.20
2019-03-24T19:49:57.507Z,29.20
2019-03-24T19:52:54.195Z,29.20
2019-03-24T19:55:50.792Z,29.20
2019-03-24T19:58:47.381Z,29.10
2019-03-24T20:01:44.435Z,29.10
2019-03-24T20:04:41.318Z,29.10
2019-03-24T20:07:47.526Z,29.00
2019-03-24T20:10:34.597Z,29.00
2019-03-24T20:13:30.795Z,29.00
2019-03-24T20:16:27.127Z,29.00
2019-03-24T20:19:24.797Z,28.90
2019-03-24T20:22:20.627Z,28.90
2019-03-24T20:25:17.290Z,28.90
2019-03-24T20:28:14.081Z,28.90
2019-03-24T20:31:10.328Z,28.80
2019-03-24T20:34:06.657Z,28.80
2019-03-24T20:37:03.212Z,28.80
2019-03-24T20:39:59.782Z,28.80
2019-03-24T20:42:56.240Z,28.80
2019-03-24T20:45:52.786Z,28.70
2019-03-24T20:48:49.334Z,28.70
2019-03-24T20:51:45.742Z,28.70
2019-03-24T20:54:42.456Z,28.70
2019-03-24T20:57:38.970Z,28.70
2019-03-24T21:00:40.675Z,28.70
2019-03-24T21:03:37.453Z,28.60
2019-03-24T21:06:34.322Z,28.60
2019-03-24T21:09:30.947Z,28.60
2019-03-24T21:12:26.866Z,28.60
2019-03-24T21:15:23.500Z,28.60
2019-03-24T21:18:20.177Z,28.50
2019-03-24T21:21:16.925Z,28.50
2019-03-24T21:24:13.474Z,28.50
2019-03-24T21:27:09.881Z,28.40
2019-03-24T21:30:06.607Z,28.40
2019-03-24T21:33:03.330Z,28.40
2019-03-24T21:35:59.911Z,28.30
2019-03-24T21:38:57.443Z,28.30
2019-03-24T21:41:53.923Z,28.30
2019-03-24T21:44:50.615Z,28.20
2019-03-24T21:47:47.001Z,28.20
2019-03-24T21:50:44.162Z,28.20
2019-03-24T21:53:41.139Z,28.10
2019-03-24T21:56:38.441Z,28.10
2019-03-24T21:59:34.969Z,28.10
2019-03-24T22:02:31.651Z,28.10
2019-03-24T22:05:27.833Z,28.00
2019-03-24T22:08:24.407Z,28.00
2019-03-24T22:11:21.424Z,28.00
2019-03-24T22:14:18.136Z,27.90
2019-03-24T22:17:15.062Z,27.90
2019-03-24T22:20:12.351Z,27.90
2019-03-24T22:23:08.685Z,27.80
2019-03-24T22:26:04.780Z,27.80
2019-03-24T22:29:01.276Z,27.80
2019-03-24T22:31:58.667Z,27.80
2019-03-24T22:34:55.099Z,27.70
2019-03-24T22:37:51.741Z,27.70
2019-03-24T22:40:48.270Z,27.70
2019-03-24T22:43:45.036Z,27.70
2019-03-24T22:46:41.805Z,27.70
2019-03-24T22:49:38.059Z,27.70
2019-03-24T22:52:34.647Z,27.70
2019-03-24T22:55:30.752Z,27.60
2019-03-24T22:58:26.669Z,27.60
2019-03-24T23:01:23.243Z,27.60
2019-03-24T23:04:21.504Z,27.60
2019-03-24T23:07:17.537Z,27.60
2019-03-24T23:10:15.025Z,27.60
2019-03-24T23:13:11.520Z,27.50
2019-03-24T23:16:08.084Z,27.50
2019-03-24T23:19:04.459Z,27.50
2019-03-24T23:22:00.793Z,27.50
2019-03-24T23:24:57.011Z,27.40
2019-03-24T23:27:53.629Z,27.40
2019-03-24T23:30:50.415Z,27.40
2019-03-24T23:33:47.199Z,27.40
2019-03-24T23:36:43.967Z,27.40
2019-03-24T23:39:40.361Z,27.40
2019-03-24T23:42:38.161Z,27.40
2019-03-24T23:45:34.892Z,27.40
2019-03-24T23:48:32.004Z,27.40
2019-03-24T23:51:28.388Z,27.40
2019-03-24T23:54:27.328Z,27.30
2019-03-24T23:57:21.571Z,27.30
